sensor_id;sensor_type;location;lat;lon;timestamp;pressure;altitude;pressure_sealevel;temperature;humidity
60974;BME280;46846;51.528;5.076;2022-07-09T00:01:28;102321.28;;;24.19;40.49
60974;BME280;46846;51.528;5.076;2022-07-09T00:03:53;102319.66;;;24.16;40.56
60974;BME280;46846;51.528;5.076;2022-07-09T00:06:20;102309.84;;;24.14;40.35
60974;BME280;46846;51.528;5.076;2022-07-09T00:08:45;102314.75;;;24.09;40.63
60974;BME280;46846;51.528;5.076;2022-07-09T00:11:11;102312.13;;;24.07;40.71
60974;BME280;46846;51.528;5.076;2022-07-09T00:13:36;102316.88;;;24.03;40.66
60974;BME280;46846;51.528;5.076;2022-07-09T00:16:02;102312.53;;;24.01;40.60
60974;BME280;46846;51.528;5.076;2022-07-09T00:18:27;102315.47;;;23.98;40.60
60974;BME280;46846;51.528;5.076;2022-07-09T00:20:56;102315.00;;;23.91;40.80
60974;BME280;46846;51.528;5.076;2022-07-09T00:23:21;102309.69;;;23.89;40.80
60974;BME280;46846;51.528;5.076;2022-07-09T00:25:46;102312.59;;;23.86;40.74
60974;BME280;46846;51.528;5.076;2022-07-09T00:28:12;102312.06;;;23.81;40.81
60974;BME280;46846;51.528;5.076;2022-07-09T00:30:37;102311.25;;;23.79;40.81
60974;BME280;46846;51.528;5.076;2022-07-09T00:33:03;102322.34;;;23.76;40.77
60974;BME280;46846;51.528;5.076;2022-07-09T00:35:28;102314.44;;;23.73;40.91
60974;BME280;46846;51.528;5.076;2022-07-09T00:37:53;102311.03;;;23.69;40.92
60974;BME280;46846;51.528;5.076;2022-07-09T00:40:19;102313.09;;;23.66;40.81
60974;BME280;46846;51.528;5.076;2022-07-09T00:42:45;102300.66;;;23.61;40.68
60974;BME280;46846;51.528;5.076;2022-07-09T00:45:10;102310.66;;;23.61;40.95
60974;BME280;46846;51.528;5.076;2022-07-09T00:47:36;102310.00;;;23.57;40.80
60974;BME280;46846;51.528;5.076;2022-07-09T00:50:02;102308.16;;;23.58;40.85
60974;BME280;46846;51.528;5.076;2022-07-09T00:52:29;102306.72;;;23.52;40.90
60974;BME280;46846;51.528;5.076;2022-07-09T00:54:56;102306.81;;;23.51;41.06
60974;BME280;46846;51.528;5.076;2022-07-09T00:57:24;102307.81;;;23.49;40.98
60974;BME280;46846;51.528;5.076;2022-07-09T00:59:51;102301.59;;;23.47;41.19
60974;BME280;46846;51.528;5.076;2022-07-09T01:02:18;102300.81;;;23.45;40.86
60974;BME280;46846;51.528;5.076;2022-07-09T01:04:44;102302.88;;;23.42;41.06
60974;BME280;46846;51.528;5.076;2022-07-09T01:07:09;102298.63;;;23.38;41.25
60974;BME280;46846;51.528;5.076;2022-07-09T01:09:34;102295.03;;;23.37;41.18
60974;BME280;46846;51.528;5.076;2022-07-09T01:12:01;102288.81;;;23.35;41.10
60974;BME280;46846;51.528;5.076;2022-07-09T01:14:26;102282.03;;;23.28;41.27
60974;BME280;46846;51.528;5.076;2022-07-09T01:17:03;102289.28;;;23.27;41.07
60974;BME280;46846;51.528;5.076;2022-07-09T01:19:30;102277.88;;;23.22;41.33
60974;BME280;46846;51.528;5.076;2022-07-09T01:21:56;102278.06;;;23.19;41.44
60974;BME280;46846;51.528;5.076;2022-07-09T01:24:22;102280.00;;;23.17;41.34
60974;BME280;46846;51.528;5.076;2022-07-09T01:26:48;102275.66;;;23.14;41.53
60974;BME280;46846;51.528;5.076;2022-07-09T01:29:14;102281.38;;;23.10;41.26
60974;BME280;46846;51.528;5.076;2022-07-09T01:31:39;102276.16;;;23.06;41.73
60974;BME280;46846;51.528;5.076;2022-07-09T01:34:06;102272.78;;;23.03;41.62
60974;BME280;46846;51.528;5.076;2022-07-09T01:36:32;102263.97;;;22.99;41.72
60974;BME280;46846;51.528;5.076;2022-07-09T01:38:59;102262.31;;;22.97;41.70
60974;BME280;46846;51.528;5.076;2022-07-09T01:41:24;102268.81;;;22.94;41.80
60974;BME280;46846;51.528;5.076;2022-07-09T01:43:49;102263.59;;;22.91;41.82
60974;BME280;46846;51.528;5.076;2022-07-09T01:46:15;102267.47;;;22.87;41.95
60974;BME280;46846;51.528;5.076;2022-07-09T01:48:40;102265.50;;;22.89;41.95
60974;BME280;46846;51.528;5.076;2022-07-09T01:51:08;102258.66;;;22.83;42.02
60974;BME280;46846;51.528;5.076;2022-07-09T01:53:34;102262.44;;;22.80;42.07
60974;BME280;46846;51.528;5.076;2022-07-09T01:56:05;102257.22;;;22.77;41.88
60974;BME280;46846;51.528;5.076;2022-07-09T01:58:30;102248.28;;;22.75;42.09
60974;BME280;46846;51.528;5.076;2022-07-09T02:00:56;102254.97;;;22.70;42.08
60974;BME280;46846;51.528;5.076;2022-07-09T02:03:21;102254.13;;;22.69;42.26
60974;BME280;46846;51.528;5.076;2022-07-09T02:05:48;102249.75;;;22.66;42.33
60974;BME280;46846;51.528;5.076;2022-07-09T02:08:13;102250.72;;;22.65;42.19
60974;BME280;46846;51.528;5.076;2022-07-09T02:10:38;102251.69;;;22.64;42.37
60974;BME280;46846;51.528;5.076;2022-07-09T02:13:04;102245.59;;;22.61;42.36
60974;BME280;46846;51.528;5.076;2022-07-09T02:15:29;102242.09;;;22.59;42.35
60974;BME280;46846;51.528;5.076;2022-07-09T02:17:55;102233.09;;;22.58;42.36
60974;BME280;46846;51.528;5.076;2022-07-09T02:20:20;102240.44;;;22.56;42.26
60974;BME280;46846;51.528;5.076;2022-07-09T02:22:46;102244.25;;;22.53;42.43
60974;BME280;46846;51.528;5.076;2022-07-09T02:25:11;102246.97;;;22.53;42.51
60974;BME280;46846;51.528;5.076;2022-07-09T02:27:37;102246.34;;;22.48;42.42
60974;BME280;46846;51.528;5.076;2022-07-09T02:30:03;102249.13;;;22.47;42.42
60974;BME280;46846;51.528;5.076;2022-07-09T02:32:28;102243.03;;;22.43;42.48
60974;BME280;46846;51.528;5.076;2022-07-09T02:34:54;102238.50;;;22.44;42.66
60974;BME280;46846;51.528;5.076;2022-07-09T02:37:19;102237.81;;;22.40;42.52
60974;BME280;46846;51.528;5.076;2022-07-09T02:39:45;102239.03;;;22.34;42.66
60974;BME280;46846;51.528;5.076;2022-07-09T02:42:10;102236.44;;;22.33;42.67
60974;BME280;46846;51.528;5.076;2022-07-09T02:44:35;102231.13;;;22.31;42.74
60974;BME280;46846;51.528;5.076;2022-07-09T02:47:01;102236.63;;;22.30;42.77
60974;BME280;46846;51.528;5.076;2022-07-09T02:49:26;102233.22;;;22.26;42.80
60974;BME280;46846;51.528;5.076;2022-07-09T02:51:52;102234.19;;;22.25;42.85
60974;BME280;46846;51.528;5.076;2022-07-09T02:54:17;102229.84;;;22.22;42.72
60974;BME280;46846;51.528;5.076;2022-07-09T02:56:43;102231.78;;;22.20;42.89
60974;BME280;46846;51.528;5.076;2022-07-09T02:59:09;102236.44;;;22.18;43.08
60974;BME280;46846;51.528;5.076;2022-07-09T03:01:34;102226.66;;;22.16;42.93
60974;BME280;46846;51.528;5.076;2022-07-09T03:03:59;102221.50;;;22.11;43.07
60974;BME280;46846;51.528;5.076;2022-07-09T03:06:26;102217.16;;;22.08;43.12
60974;BME280;46846;51.528;5.076;2022-07-09T03:08:51;102220.16;;;22.04;43.10
60974;BME280;46846;51.528;5.076;2022-07-09T03:11:17;102221.00;;;22.04;43.32
60974;BME280;46846;51.528;5.076;2022-07-09T03:13:42;102217.53;;;22.02;43.22
60974;BME280;46846;51.528;5.076;2022-07-09T03:16:08;102209.69;;;21.97;43.16
60974;BME280;46846;51.528;5.076;2022-07-09T03:18:33;102222.47;;;21.95;43.19
60974;BME280;46846;51.528;5.076;2022-07-09T03:20:59;102216.06;;;21.96;43.28
60974;BME280;46846;51.528;5.076;2022-07-09T03:23:25;102218.09;;;21.93;43.22
60974;BME280;46846;51.528;5.076;2022-07-09T03:25:50;102223.50;;;21.93;43.38
60974;BME280;46846;51.528;5.076;2022-07-09T03:28:16;102220.19;;;21.88;43.46
60974;BME280;46846;51.528;5.076;2022-07-09T03:30:41;102232.28;;;21.82;43.55
60974;BME280;46846;51.528;5.076;2022-07-09T03:33:06;102224.44;;;21.77;43.63
60974;BME280;46846;51.528;5.076;2022-07-09T03:35:32;102231.81;;;21.75;43.51
60974;BME280;46846;51.528;5.076;2022-07-09T03:37:57;102222.03;;;21.73;43.83
60974;BME280;46846;51.528;5.076;2022-07-09T03:40:22;102220.28;;;21.71;43.62
60974;BME280;46846;51.528;5.076;2022-07-09T03:42:48;102223.06;;;21.70;43.71
60974;BME280;46846;51.528;5.076;2022-07-09T03:45:13;102229.69;;;21.64;43.91
60974;BME280;46846;51.528;5.076;2022-07-09T03:47:39;102230.38;;;21.68;43.73
60974;BME280;46846;51.528;5.076;2022-07-09T03:50:05;102225.06;;;21.66;43.54
60974;BME280;46846;51.528;5.076;2022-07-09T03:52:30;102226.88;;;21.66;43.79
60974;BME280;46846;51.528;5.076;2022-07-09T03:54:55;102211.69;;;21.63;43.81
60974;BME280;46846;51.528;5.076;2022-07-09T03:57:21;102211.88;;;21.60;43.87
60974;BME280;46846;51.528;5.076;2022-07-09T03:59:46;102211.97;;;21.58;43.79
60974;BME280;46846;51.528;5.076;2022-07-09T04:02:11;102221.06;;;21.57;43.82
60974;BME280;46846;51.528;5.076;2022-07-09T04:04:37;102219.31;;;21.56;43.68
60974;BME280;46846;51.528;5.076;2022-07-09T04:07:02;102208.75;;;21.52;44.09
60974;BME280;46846;51.528;5.076;2022-07-09T04:09:28;102202.44;;;21.51;43.94
60974;BME280;46846;51.528;5.076;2022-07-09T04:11:53;102202.66;;;21.48;44.01
60974;BME280;46846;51.528;5.076;2022-07-09T04:14:19;102203.69;;;21.45;44.01
60974;BME280;46846;51.528;5.076;2022-07-09T04:16:45;102200.13;;;21.45;44.20
60974;BME280;46846;51.528;5.076;2022-07-09T04:19:11;102201.97;;;21.44;43.99
60974;BME280;46846;51.528;5.076;2022-07-09T04:21:37;102203.97;;;21.41;43.93
60974;BME280;46846;51.528;5.076;2022-07-09T04:24:02;102205.03;;;21.38;44.25
60974;BME280;46846;51.528;5.076;2022-07-09T04:26:28;102196.03;;;21.38;44.02
60974;BME280;46846;51.528;5.076;2022-07-09T04:28:53;102202.50;;;21.35;44.12
60974;BME280;46846;51.528;5.076;2022-07-09T04:31:19;102204.53;;;21.31;44.28
60974;BME280;46846;51.528;5.076;2022-07-09T04:33:46;102206.34;;;21.31;44.17
60974;BME280;46846;51.528;5.076;2022-07-09T04:36:12;102210.00;;;21.30;44.22
60974;BME280;46846;51.528;5.076;2022-07-09T04:38:37;102204.78;;;21.27;44.27
60974;BME280;46846;51.528;5.076;2022-07-09T04:41:03;102203.06;;;21.26;44.42
60974;BME280;46846;51.528;5.076;2022-07-09T04:43:29;102209.31;;;21.26;44.48
60974;BME280;46846;51.528;5.076;2022-07-09T04:45:55;102209.50;;;21.23;44.36
60974;BME280;46846;51.528;5.076;2022-07-09T04:48:20;102205.91;;;21.23;44.34
60974;BME280;46846;51.528;5.076;2022-07-09T04:50:45;102202.44;;;21.21;44.58
60974;BME280;46846;51.528;5.076;2022-07-09T04:53:11;102193.44;;;21.20;44.34
60974;BME280;46846;51.528;5.076;2022-07-09T04:55:36;102196.34;;;21.17;44.38
60974;BME280;46846;51.528;5.076;2022-07-09T04:58:01;102200.09;;;21.14;44.53
60974;BME280;46846;51.528;5.076;2022-07-09T05:00:27;102194.59;;;21.16;44.72
60974;BME280;46846;51.528;5.076;2022-07-09T05:02:52;102193.97;;;21.11;44.49
60974;BME280;46846;51.528;5.076;2022-07-09T05:05:18;102191.19;;;21.12;44.88
60974;BME280;46846;51.528;5.076;2022-07-09T05:07:47;102197.56;;;21.11;44.32
60974;BME280;46846;51.528;5.076;2022-07-09T05:10:12;102193.09;;;21.10;44.64
60974;BME280;46846;51.528;5.076;2022-07-09T05:12:38;102193.09;;;21.10;44.61
60974;BME280;46846;51.528;5.076;2022-07-09T05:15:04;102185.16;;;21.07;44.47
60974;BME280;46846;51.528;5.076;2022-07-09T05:17:33;102189.69;;;21.07;44.37
60974;BME280;46846;51.528;5.076;2022-07-09T05:19:58;102191.69;;;21.03;44.51
60974;BME280;46846;51.528;5.076;2022-07-09T05:22:24;102187.59;;;20.96;44.93
60974;BME280;46846;51.528;5.076;2022-07-09T05:24:50;102187.78;;;20.93;44.74
60974;BME280;46846;51.528;5.076;2022-07-09T05:27:15;102185.84;;;20.95;44.74
60974;BME280;46846;51.528;5.076;2022-07-09T05:29:40;102186.91;;;20.92;44.93
60974;BME280;46846;51.528;5.076;2022-07-09T05:32:06;102181.34;;;20.95;44.64
60974;BME280;46846;51.528;5.076;2022-07-09T05:34:31;102183.53;;;20.88;44.66
60974;BME280;46846;51.528;5.076;2022-07-09T05:36:57;102180.81;;;20.88;44.72
60974;BME280;46846;51.528;5.076;2022-07-09T05:39:24;102186.22;;;20.88;44.71
60974;BME280;46846;51.528;5.076;2022-07-09T05:41:49;102182.72;;;20.86;45.07
60974;BME280;46846;51.528;5.076;2022-07-09T05:44:15;102174.72;;;20.85;44.72
60974;BME280;46846;51.528;5.076;2022-07-09T05:46:41;102176.25;;;20.89;45.25
60974;BME280;46846;51.528;5.076;2022-07-09T05:49:06;102176.06;;;20.92;44.78
60974;BME280;46846;51.528;5.076;2022-07-09T05:51:32;102174.25;;;20.93;44.89
60974;BME280;46846;51.528;5.076;2022-07-09T05:53:58;102168.84;;;20.93;44.62
60974;BME280;46846;51.528;5.076;2022-07-09T05:56:23;102177.75;;;20.95;44.53
60974;BME280;46846;51.528;5.076;2022-07-09T05:58:49;102174.00;;;20.97;44.72
60974;BME280;46846;51.528;5.076;2022-07-09T06:01:14;102185.59;;;20.99;44.57
60974;BME280;46846;51.528;5.076;2022-07-09T06:03:40;102189.38;;;20.97;44.72
60974;BME280;46846;51.528;5.076;2022-07-09T06:06:06;102179.47;;;20.96;44.52
60974;BME280;46846;51.528;5.076;2022-07-09T06:08:32;102175.66;;;21.00;45.15
60974;BME280;46846;51.528;5.076;2022-07-09T06:10:59;102186.13;;;21.06;44.83
60974;BME280;46846;51.528;5.076;2022-07-09T06:13:24;102196.25;;;21.02;44.66
60974;BME280;46846;51.528;5.076;2022-07-09T06:15:50;102187.25;;;21.02;44.98
60974;BME280;46846;51.528;5.076;2022-07-09T06:18:15;102185.34;;;21.04;44.30
60974;BME280;46846;51.528;5.076;2022-07-09T06:20:41;102190.66;;;21.06;44.69
60974;BME280;46846;51.528;5.076;2022-07-09T06:23:06;102195.22;;;21.05;44.47
60974;BME280;46846;51.528;5.076;2022-07-09T06:25:32;102203.84;;;20.96;45.35
60974;BME280;46846;51.528;5.076;2022-07-09T06:27:58;102204.53;;;20.99;44.71
60974;BME280;46846;51.528;5.076;2022-07-09T06:30:23;102205.69;;;20.95;44.44
60974;BME280;46846;51.528;5.076;2022-07-09T06:32:49;102214.75;;;20.94;44.70
60974;BME280;46846;51.528;5.076;2022-07-09T06:35:14;102201.66;;;21.02;44.41
60974;BME280;46846;51.528;5.076;2022-07-09T06:37:40;102201.47;;;21.06;44.78
60974;BME280;46846;51.528;5.076;2022-07-09T06:40:06;102201.13;;;20.96;45.36
60974;BME280;46846;51.528;5.076;2022-07-09T06:42:32;102208.31;;;20.97;45.80
60974;BME280;46846;51.528;5.076;2022-07-09T06:44:57;102210.47;;;21.06;45.58
60974;BME280;46846;51.528;5.076;2022-07-09T06:47:23;102213.00;;;21.09;45.32
60974;BME280;46846;51.528;5.076;2022-07-09T06:49:48;102201.81;;;21.15;45.09
60974;BME280;46846;51.528;5.076;2022-07-09T06:52:13;102195.91;;;21.09;46.65
60974;BME280;46846;51.528;5.076;2022-07-09T06:54:39;102185.25;;;21.06;45.49
60974;BME280;46846;51.528;5.076;2022-07-09T06:57:05;102190.66;;;21.22;45.16
60974;BME280;46846;51.528;5.076;2022-07-09T06:59:31;102201.41;;;21.23;44.71
60974;BME280;46846;51.528;5.076;2022-07-09T07:01:57;102202.09;;;21.27;45.63
60974;BME280;46846;51.528;5.076;2022-07-09T07:04:22;102197.09;;;21.35;45.47
60974;BME280;46846;51.528;5.076;2022-07-09T07:06:48;102193.41;;;21.36;45.24
60974;BME280;46846;51.528;5.076;2022-07-09T07:09:16;102195.00;;;21.55;48.11
60974;BME280;46846;51.528;5.076;2022-07-09T07:11:47;102189.59;;;21.55;45.81
60974;BME280;46846;51.528;5.076;2022-07-09T07:14:13;102196.88;;;21.54;45.21
60974;BME280;46846;51.528;5.076;2022-07-09T07:16:38;102192.50;;;21.52;44.61
60974;BME280;46846;51.528;5.076;2022-07-09T07:19:04;102190.56;;;21.54;46.25
60974;BME280;46846;51.528;5.076;2022-07-09T07:21:30;102194.66;;;21.14;45.32
60974;BME280;46846;51.528;5.076;2022-07-09T07:23:55;102197.88;;;21.37;45.69
60974;BME280;46846;51.528;5.076;2022-07-09T07:26:20;102201.97;;;21.44;45.06
60974;BME280;46846;51.528;5.076;2022-07-09T07:28:46;102204.72;;;21.59;45.86
60974;BME280;46846;51.528;5.076;2022-07-09T07:31:11;102195.56;;;21.45;47.01
60974;BME280;46846;51.528;5.076;2022-07-09T07:33:37;102187.09;;;21.52;45.05
60974;BME280;46846;51.528;5.076;2022-07-09T07:36:03;102186.53;;;21.61;45.37
60974;BME280;46846;51.528;5.076;2022-07-09T07:38:29;102192.72;;;21.63;44.88
60974;BME280;46846;51.528;5.076;2022-07-09T07:40:54;102190.97;;;21.62;44.87
60974;BME280;46846;51.528;5.076;2022-07-09T07:43:20;102201.59;;;21.51;45.54
60974;BME280;46846;51.528;5.076;2022-07-09T07:45:45;102198.63;;;21.55;45.66
60974;BME280;46846;51.528;5.076;2022-07-09T07:48:10;102200.75;;;21.65;44.99
60974;BME280;46846;51.528;5.076;2022-07-09T07:50:36;102201.19;;;21.73;45.37
60974;BME280;46846;51.528;5.076;2022-07-09T07:53:05;102206.44;;;21.76;44.99
60974;BME280;46846;51.528;5.076;2022-07-09T07:55:30;102207.13;;;21.80;46.70
60974;BME280;46846;51.528;5.076;2022-07-09T07:57:55;102200.56;;;21.84;45.50
60974;BME280;46846;51.528;5.076;2022-07-09T08:00:21;102206.09;;;21.82;45.04
60974;BME280;46846;51.528;5.076;2022-07-09T08:02:47;102204.47;;;21.94;45.42
60974;BME280;46846;51.528;5.076;2022-07-09T08:05:12;102207.47;;;21.90;46.26
60974;BME280;46846;51.528;5.076;2022-07-09T08:07:38;102208.91;;;21.95;45.46
60974;BME280;46846;51.528;5.076;2022-07-09T08:10:04;102195.84;;;22.02;44.98
60974;BME280;46846;51.528;5.076;2022-07-09T08:12:29;102201.19;;;22.04;44.96
60974;BME280;46846;51.528;5.076;2022-07-09T08:14:54;102196.72;;;22.03;45.35
60974;BME280;46846;51.528;5.076;2022-07-09T08:17:20;102185.69;;;22.06;46.08
60974;BME280;46846;51.528;5.076;2022-07-09T08:19:45;102182.59;;;22.12;45.70
60974;BME280;46846;51.528;5.076;2022-07-09T08:22:11;102185.91;;;22.17;45.20
60974;BME280;46846;51.528;5.076;2022-07-09T08:24:36;102184.72;;;22.21;46.62
60974;BME280;46846;51.528;5.076;2022-07-09T08:27:02;102182.31;;;22.17;45.52
60974;BME280;46846;51.528;5.076;2022-07-09T08:29:27;102183.88;;;22.21;45.83
60974;BME280;46846;51.528;5.076;2022-07-09T08:31:52;102177.25;;;22.25;46.37
60974;BME280;46846;51.528;5.076;2022-07-09T08:34:18;102180.88;;;22.25;45.67
60974;BME280;46846;51.528;5.076;2022-07-09T08:36:43;102167.59;;;22.21;47.35
60974;BME280;46846;51.528;5.076;2022-07-09T08:39:09;102162.66;;;22.27;46.98
60974;BME280;46846;51.528;5.076;2022-07-09T08:41:35;102164.59;;;22.25;45.99
60974;BME280;46846;51.528;5.076;2022-07-09T08:44:02;102154.22;;;22.32;46.15
60974;BME280;46846;51.528;5.076;2022-07-09T08:46:29;102156.47;;;22.25;46.18
60974;BME280;46846;51.528;5.076;2022-07-09T08:48:57;102155.09;;;22.33;46.15
60974;BME280;46846;51.528;5.076;2022-07-09T08:51:23;102147.16;;;22.30;46.75
60974;BME280;46846;51.528;5.076;2022-07-09T08:53:48;102147.25;;;22.28;46.76
60974;BME280;46846;51.528;5.076;2022-07-09T08:56:14;102154.72;;;22.24;46.97
60974;BME280;46846;51.528;5.076;2022-07-09T08:58:40;102168.84;;;22.44;46.44
60974;BME280;46846;51.528;5.076;2022-07-09T09:01:05;102170.09;;;22.24;46.65
60974;BME280;46846;51.528;5.076;2022-07-09T09:03:32;102164.59;;;22.25;46.75
60974;BME280;46846;51.528;5.076;2022-07-09T09:06:05;102154.72;;;22.39;47.01
60974;BME280;46846;51.528;5.076;2022-07-09T09:08:36;102154.81;;;22.52;46.53
60974;BME280;46846;51.528;5.076;2022-07-09T09:11:06;102153.94;;;22.51;46.63
60974;BME280;46846;51.528;5.076;2022-07-09T09:13:42;102162.06;;;22.51;46.18
60974;BME280;46846;51.528;5.076;2022-07-09T09:16:09;102167.03;;;22.59;47.06
60974;BME280;46846;51.528;5.076;2022-07-09T09:18:36;102158.50;;;22.65;46.38
60974;BME280;46846;51.528;5.076;2022-07-09T09:21:05;102163.13;;;22.63;46.25
60974;BME280;46846;51.528;5.076;2022-07-09T09:23:50;102144.13;;;22.49;46.69
60974;BME280;46846;51.528;5.076;2022-07-09T09:26:22;102153.25;;;22.62;46.63
60974;BME280;46846;51.528;5.076;2022-07-09T09:28:59;102152.53;;;22.73;46.31
60974;BME280;46846;51.528;5.076;2022-07-09T09:31:27;102155.84;;;22.78;46.43
60974;BME280;46846;51.528;5.076;2022-07-09T09:36:38;102153.13;;;22.78;46.31
60974;BME280;46846;51.528;5.076;2022-07-09T09:39:12;102160.09;;;22.68;46.80
60974;BME280;46846;51.528;5.076;2022-07-09T09:41:38;102164.97;;;22.63;46.86
60974;BME280;46846;51.528;5.076;2022-07-09T09:44:08;102157.38;;;22.68;46.98
60974;BME280;46846;51.528;5.076;2022-07-09T09:46:36;102162.81;;;22.68;47.07
60974;BME280;46846;51.528;5.076;2022-07-09T09:49:04;102165.94;;;22.62;47.24
60974;BME280;46846;51.528;5.076;2022-07-09T09:52:19;102160.53;;;22.62;47.21
60974;BME280;46846;51.528;5.076;2022-07-09T09:54:21;102159.84;;;22.58;47.23
60974;BME280;46846;51.528;5.076;2022-07-09T09:56:48;102169.22;;;22.67;47.32
60974;BME280;46846;51.528;5.076;2022-07-09T09:59:14;102174.63;;;22.67;47.62
60974;BME280;46846;51.528;5.076;2022-07-09T10:01:41;102170.69;;;22.73;47.75
60974;BME280;46846;51.528;5.076;2022-07-09T10:04:08;102176.19;;;22.71;46.84
60974;BME280;46846;51.528;5.076;2022-07-09T10:06:34;102180.66;;;22.72;46.99
60974;BME280;46846;51.528;5.076;2022-07-09T10:09:04;102182.59;;;22.70;47.08
60974;BME280;46846;51.528;5.076;2022-07-09T10:11:41;102177.72;;;22.75;46.83
60974;BME280;46846;51.528;5.076;2022-07-09T10:14:07;102173.47;;;22.86;47.43
60974;BME280;46846;51.528;5.076;2022-07-09T10:16:38;102173.41;;;22.73;47.18
60974;BME280;46846;51.528;5.076;2022-07-09T10:19:04;102167.81;;;22.89;46.70
60974;BME280;46846;51.528;5.076;2022-07-09T10:21:37;102169.41;;;22.78;47.21
60974;BME280;46846;51.528;5.076;2022-07-09T10:24:04;102172.06;;;22.93;47.24
60974;BME280;46846;51.528;5.076;2022-07-09T10:26:43;102168.75;;;23.02;46.90
60974;BME280;46846;51.528;5.076;2022-07-09T10:29:27;102174.78;;;22.93;47.55
60974;BME280;46846;51.528;5.076;2022-07-09T10:31:53;102164.38;;;23.00;47.61
60974;BME280;46846;51.528;5.076;2022-07-09T10:37:01;102162.16;;;23.06;47.57
60974;BME280;46846;51.528;5.076;2022-07-09T10:39:28;102150.44;;;23.19;46.65
60974;BME280;46846;51.528;5.076;2022-07-09T10:42:17;102148.81;;;23.16;46.49
60974;BME280;46846;51.528;5.076;2022-07-09T10:44:43;102162.88;;;22.96;47.23
60974;BME280;46846;51.528;5.076;2022-07-09T10:47:10;102162.69;;;23.12;46.76
60974;BME280;46846;51.528;5.076;2022-07-09T10:49:36;102156.28;;;23.13;46.51
60974;BME280;46846;51.528;5.076;2022-07-09T10:52:03;102160.84;;;23.12;46.72
60974;BME280;46846;51.528;5.076;2022-07-09T10:54:29;102158.59;;;22.91;47.16
60974;BME280;46846;51.528;5.076;2022-07-09T10:56:55;102166.91;;;23.03;46.93
60974;BME280;46846;51.528;5.076;2022-07-09T10:59:22;102166.47;;;23.09;47.25
60974;BME280;46846;51.528;5.076;2022-07-09T11:01:48;102161.13;;;22.94;47.23
60974;BME280;46846;51.528;5.076;2022-07-09T11:04:31;102173.06;;;22.92;47.13
60974;BME280;46846;51.528;5.076;2022-07-09T11:06:57;102168.97;;;22.99;47.03
60974;BME280;46846;51.528;5.076;2022-07-09T11:09:25;102162.56;;;23.00;47.31
60974;BME280;46846;51.528;5.076;2022-07-09T11:11:53;102172.44;;;23.01;47.17
60974;BME280;46846;51.528;5.076;2022-07-09T11:14:18;102166.44;;;22.96;47.43
60974;BME280;46846;51.528;5.076;2022-07-09T11:16:53;102177.25;;;23.11;46.83
60974;BME280;46846;51.528;5.076;2022-07-09T11:19:20;102171.56;;;23.01;47.05
60974;BME280;46846;51.528;5.076;2022-07-09T11:21:46;102175.19;;;22.87;47.38
60974;BME280;46846;51.528;5.076;2022-07-09T11:24:16;102169.97;;;22.84;47.65
60974;BME280;46846;51.528;5.076;2022-07-09T11:26:42;102164.97;;;23.05;47.00
60974;BME280;46846;51.528;5.076;2022-07-09T11:29:08;102164.06;;;23.04;47.06
60974;BME280;46846;51.528;5.076;2022-07-09T11:31:35;102174.53;;;23.11;46.71
60974;BME280;46846;51.528;5.076;2022-07-09T11:34:00;102175.94;;;23.16;46.59
60974;BME280;46846;51.528;5.076;2022-07-09T11:36:43;102184.47;;;23.25;46.79
60974;BME280;46846;51.528;5.076;2022-07-09T11:39:10;102166.28;;;23.40;45.97
60974;BME280;46846;51.528;5.076;2022-07-09T11:41:46;102171.28;;;23.33;46.32
60974;BME280;46846;51.528;5.076;2022-07-09T11:44:19;102177.25;;;23.11;46.70
60974;BME280;46846;51.528;5.076;2022-07-09T11:46:45;102176.56;;;23.07;46.86
60974;BME280;46846;51.528;5.076;2022-07-09T11:49:15;102175.88;;;23.18;46.49
60974;BME280;46846;51.528;5.076;2022-07-09T11:51:43;102174.09;;;23.31;46.40
60974;BME280;46846;51.528;5.076;2022-07-09T11:54:08;102173.72;;;23.23;46.35
60974;BME280;46846;51.528;5.076;2022-07-09T11:56:45;102171.38;;;23.31;46.45
60974;BME280;46846;51.528;5.076;2022-07-09T11:59:11;102170.22;;;23.35;46.28
60974;BME280;46846;51.528;5.076;2022-07-09T12:01:37;102176.06;;;23.29;46.36
60974;BME280;46846;51.528;5.076;2022-07-09T12:04:04;102170.22;;;23.35;46.19
60974;BME280;46846;51.528;5.076;2022-07-09T12:06:30;102178.06;;;23.26;45.98
60974;BME280;46846;51.528;5.076;2022-07-09T12:09:03;102178.84;;;23.28;46.50
60974;BME280;46846;51.528;5.076;2022-07-09T12:11:29;102172.28;;;23.45;46.00
60974;BME280;46846;51.528;5.076;2022-07-09T12:13:56;102170.56;;;23.44;45.55
60974;BME280;46846;51.528;5.076;2022-07-09T12:16:22;102177.38;;;23.37;45.90
60974;BME280;46846;51.528;5.076;2022-07-09T12:18:47;102178.47;;;23.47;45.74
60974;BME280;46846;51.528;5.076;2022-07-09T12:21:13;102182.09;;;23.47;45.47
60974;BME280;46846;51.528;5.076;2022-07-09T12:23:38;102187.47;;;23.20;46.51
60974;BME280;46846;51.528;5.076;2022-07-09T12:26:03;102171.09;;;23.21;46.17
60974;BME280;46846;51.528;5.076;2022-07-09T12:28:29;102176.66;;;23.47;45.21
60974;BME280;46846;51.528;5.076;2022-07-09T12:30:54;102176.22;;;23.26;45.92
60974;BME280;46846;51.528;5.076;2022-07-09T12:33:19;102168.59;;;23.46;45.05
60974;BME280;46846;51.528;5.076;2022-07-09T12:35:45;102172.47;;;23.69;44.07
60974;BME280;46846;51.528;5.076;2022-07-09T12:38:10;102168.94;;;23.67;44.54
60974;BME280;46846;51.528;5.076;2022-07-09T12:40:36;102172.00;;;23.62;44.81
60974;BME280;46846;51.528;5.076;2022-07-09T12:43:01;102174.78;;;23.48;44.99
60974;BME280;46846;51.528;5.076;2022-07-09T12:45:26;102165.22;;;23.42;45.24
60974;BME280;46846;51.528;5.076;2022-07-09T12:47:52;102159.28;;;23.63;44.63
60974;BME280;46846;51.528;5.076;2022-07-09T12:50:17;102158.31;;;23.77;43.74
60974;BME280;46846;51.528;5.076;2022-07-09T12:52:43;102153.75;;;23.78;43.81